Flight Track Log - Related Links

Times and Time Zones

All times are in EST time to prevent confusion due to time zone crossing. See the CSH801 flight status page for this flight to view local times or setup timezone preferences in your user account.

Time Position Orientation Groundspeed Altitude Reporting Facility
EST Latitude Longitude Course Direction KTS MPH feet Rate Location/Type
Tue 09:23:00 PM 28.6345 121.6896 182° South  Level Estimated
Tue 09:24:00 PM 28.5536 121.6864 182° South  Level Estimated
Tue 09:25:00 PM 28.4727 121.6832 182° South  Level Estimated
Tue 09:26:00 PM 28.3918 121.6799 182° South  Level Estimated
Tue 09:27:00 PM 28.3109 121.6767 182° South  Level Estimated
Tue 09:28:00 PM 28.2300 121.6735 182° South  Level Estimated
Tue 09:29:00 PM 28.1491 121.6703 182° South  Level Estimated
Tue 09:30:00 PM 28.0682 121.6671 182° South  Level Estimated
Tue 09:31:00 PM 27.9872 121.6639 182° South  Level Estimated
Tue 09:32:00 PM 27.9063 121.6607 182° South  Level Estimated
Tue 09:33:00 PM 27.8254 121.6575 182° South  Level Estimated
Tue 09:34:00 PM 27.7445 121.6543 182° South  Level Estimated
Tue 09:35:00 PM 27.6636 121.6512 182° South  Level Estimated
Tue 09:36:00 PM 27.5827 121.6480 182° South  Level Estimated
Tue 09:37:00 PM 27.5018 121.6448 182° South  Level Estimated
Tue 09:38:00 PM 27.4209 121.6416 182° South  Level Estimated
Tue 09:39:00 PM 27.3400 121.6385 182° South  Level Estimated
Tue 09:40:00 PM 27.2591 121.6353 182° South  Level Estimated
Tue 09:41:00 PM 27.1782 121.6322 182° South  Level Estimated
Tue 09:42:00 PM 27.0972 121.6291 182° South  Level Estimated
Tue 09:43:00 PM 27.0163 121.6259 182° South  Level Estimated
Tue 09:44:00 PM 26.9354 121.6228 182° South  Level Estimated
Tue 09:45:00 PM 26.8545 121.6196 182° South  Level Estimated
Tue 09:46:00 PM 26.7736 121.6165 182° South  Level Estimated
Tue 09:47:00 PM 26.6927 121.6134 182° South  Level Estimated
Tue 09:48:00 PM 26.6118 121.6103 182° South  Level Estimated
Tue 09:49:00 PM 26.5308 121.6072 182° South  Level Estimated
Tue 09:50:00 PM 26.4499 121.6040 182° South  Level Estimated
Tue 09:51:00 PM 26.3690 121.6010 182° South  Level Estimated
Tue 09:52:00 PM 26.2881 121.5978 182° South  Level Estimated
Tue 09:53:00 PM 26.2072 121.5947 182° South  Level Estimated
Tue 09:54:00 PM 26.1262 121.5917 182° South  Level Estimated
Tue 09:55:00 PM 26.0453 121.5886 182° South  Level Estimated
Tue 09:56:00 PM 25.9644 121.5855 182° South  Level Estimated
Tue 09:57:00 PM 25.8835 121.5824 182° South  Level Estimated
Tue 09:58:00 PM 25.8026 121.5793 182° South  Level Estimated
Tue 09:59:00 PM 25.7216 121.5763 182° South  Level Estimated
Tue 10:00:00 PM 25.6407 121.5732 182° South  Level Estimated
Tue 10:01:00 PM 25.5598 121.5701 182° South  Level Estimated
Tue 10:02:00 PM 25.4849 121.5673 182° South  Level Estimated
Tue 10:03:00 PM 25.4100 121.5645 182° South  Level Estimated
Tue 10:04:00 PM 25.3351 121.5617 182° South  Level Estimated
Tue 10:05:00 PM 25.2601 121.5588 182° South  Level Estimated
Tue 10:06:00 PM 25.1934 121.5563 182° South  Level Estimated
Tue 10:07:00 PM 25.1268 121.5538 182° South  Level Estimated
Tue 10:08:00 PM 25.0694 121.5517 182° South  Level Estimated
Tue 10:09:00 PM 25.0694 121.5517 326° Northwest  Level Estimated
Tue 10:10:00 PM 25.0694 121.5517 326° Northwest  Level Estimated
Tue 10:11:00 PM 25.0694 121.5517 326° Northwest  Level Estimated
Tue 10:12:00 PM 25.0694 121.5517 326° Northwest  Level Estimated
Tue 10:13:00 PM 25.0694 121.5517 326° Northwest  Level Estimated
Tue 10:14:00 PM 25.0694 121.5517 326° Northwest  Level Estimated
Tue 10:15:00 PM 25.0694 121.5517 326° Northwest  Level Estimated
Tue 10:16:00 PM 25.0694 121.5517 326° Northwest  Level Estimated
Tue 10:17:00 PM 25.0694 121.5517 326° Northwest  Level Estimated
Tue 10:18:00 PM 25.0694 121.5517 326° Northwest  Level Estimated
Tue 10:19:00 PM 25.0694 121.5517 326° Northwest  Level Estimated
Tue 10:20:00 PM 25.0694 121.5517 326° Northwest  Level Estimated
Tue 10:21:00 PM 25.0694 121.5517 326° Northwest  Level Estimated
Tue 10:22:00 PM 25.0694 121.5517 326° Northwest  Level Estimated
Tue 10:23:00 PM 25.0694 121.5517 326° Northwest  Level Estimated
Tue 10:24:00 PM 25.0694 121.5517 326° Northwest  Level Estimated
Tue 10:25:00 PM 25.0694 121.5517 326° Northwest  Level Estimated
Tue 10:26:00 PM 25.0694 121.5517 326° Northwest  Level Estimated
Tue 10:27:00 PM 25.0694 121.5517 326° Northwest  Level Estimated
Tue 10:28:00 PM 25.0694 121.5517 326° Northwest  Level Estimated
Tue 10:29:00 PM 25.0694 121.5517 326° Northwest  Level Estimated
Tue 10:30:00 PM 25.0694 121.5517 326° Northwest  Level Estimated
Tue 10:31:00 PM 25.0694 121.5517 326° Northwest  Level Estimated
Tue 10:32:00 PM 25.0694 121.5517 326° Northwest  Level Estimated
Tue 10:33:00 PM 25.0694 121.5517 326° Northwest  Level Estimated

Login

Don't have an account? Register now (free) for customized features, flight alerts, and more!